Flight Track Log - Related Links

Times and Time Zones

All times are in EDT time to prevent confusion due to time zone crossing. See the N7191N flight status page for this flight to view local times or setup timezone preferences in your user account.

Time Position Orientation Groundspeed Altitude Reporting Facility
EDT Latitude Longitude Course Direction KTS MPH feet Rate Location/Type
Thu 05:07:00 PM 39.8956 -83.7325 40° Northeast 181 208 5,600  Level Indianapolis Center
Thu 05:08:02 PM 39.9211 -83.6758 60° Northeast 183 211 7,000 1,258 Climbing Indianapolis Center
Thu 05:09:04 PM 39.9406 -83.6111 69° East 187 215 8,200 1,113 Climbing Indianapolis Center
Thu 05:10:06 PM 39.9653 -83.5442 64° Northeast 198 228 9,300 968 Climbing Indianapolis Center
Thu 05:11:08 PM 40.0058 -83.4919 45° Northeast 212 244 10,200 1,016 Climbing Indianapolis Center
Thu 05:12:10 PM 40.0569 -83.4486 33° Northeast 216 249 11,400 1,113 Climbing Indianapolis Center
Thu 05:13:12 PM 40.1006 -83.3983 41° Northeast 208 239 12,500 768 Climbing Indianapolis Center
Thu 05:14:15 PM 40.1564 -83.3400 39° Northeast 219 252 13,000 192 Climbing Indianapolis Center
Thu 05:15:17 PM 40.2106 -83.2819 39° Northeast 246 283 12,900 -48 Descending Indianapolis Center
Thu 05:16:19 PM 40.2669 -83.2256 37° Northeast 252 290 12,900  Level Indianapolis Center
Thu 05:17:21 PM 40.3222 -83.1678 39° Northeast 252 290 12,900  Level Indianapolis Center
Thu 05:18:23 PM 40.3783 -83.1086 39° Northeast 255 293 12,900  Level Indianapolis Center
Thu 05:19:25 PM 40.4347 -83.0511 38° Northeast 256 295 12,900  Level Indianapolis Center
Thu 05:20:27 PM 40.4906 -82.9925 39° Northeast 255 293 12,900  Level Indianapolis Center
Thu 05:21:29 PM 40.5536 -82.9247 39° Northeast 257 296 12,900  Level Indianapolis Center
Thu 05:23:12 PM 40.6517 -82.8217 39° Northeast 253 291 12,900 -294 Level Cleveland Center
Thu 05:24:12 PM 40.7072 -82.7633 39° Northeast 253 291 12,100 -950 Descending Cleveland Center
Thu 05:25:12 PM 40.7647 -82.6994 40° Northeast 267 307 11,000 -1,091 Descending Cleveland Center
Thu 05:25:29 PM 40.7836 -82.6836 32° Northeast 274 315 10,700 -1,200 Descending Cleveland Center
Thu 05:26:12 PM 40.8242 -82.6356 42° Northeast 267 307 9,800 -932 Descending Cleveland Center
Thu 05:27:12 PM 40.8856 -82.5797 35° Northeast 267 307 9,100 -400 Descending Cleveland Center
Thu 05:28:12 PM 40.9469 -82.5350 29° Northeast 249 287 9,000 -76 Descending Cleveland Center
Thu 05:28:31 PM 40.9617 -82.5272 22° Northeast 238 274 9,000  Level Cleveland Center
Thu 05:29:12 PM 41.0039 -82.4872 36° Northeast 244 281 9,000 -119 Level Cleveland Center
Thu 05:30:12 PM 41.0425 -82.4250 51° Northeast 239 275 8,800 -600 Descending Cleveland Center
Thu 05:31:12 PM 41.0894 -82.3492 51° Northeast 250 288 7,800 -1,068 Descending Cleveland Center
Thu 05:32:10 PM 41.1364 -82.2814 47° Northeast 244 281 6,700 -908 Descending Cleveland Center
Thu 05:33:11 PM 41.1792 -82.2081 52° Northeast 238 274 6,000 -344 Descending Cleveland Center
Thu 05:34:12 PM 41.2175 -82.1511 48° Northeast 241 277 6,000 -446 Level Cleveland Center
Thu 05:35:12 PM 41.2600 -82.0858 49° Northeast 230 265 5,100 -1,000 Descending Cleveland Center
Thu 05:36:18 PM 41.3069 -82.0122 50° Northeast 216 249 3,900 -1,181 Descending Cleveland Center
Thu 05:37:19 PM 41.3472 -81.9522 48° Northeast 215 247 2,600 -1,131 Descending Cleveland Center
Thu 05:38:20 PM 41.3769 -81.9003 53° Northeast 148 170 1,600 -793 Descending Cleveland Center
Thu 05:39:20 PM 41.3983 -81.8703 46° Northeast 90 104 1,000 -600 Descending Cleveland Center
Thu 05:41:00 PM 41.4000 -81.8500 37° Northeast  Level FlightAware Approximate

Login

Don't have an account? Register now (free) for customized features, flight alerts, and more!